Nearby METAR Reports

 

KBFI - Boeing Field Seattle, WA, USA
Distance from station: SE 4mi, 7km
Updated: Sun, 20-Jan-2019 7:53pm PST
Clear
Clear
 Wind from calm
Wind: Calm
Temperature: 37°F , 3°C
Dew Point: 34°F , 1°C
Humidity: 87%
Barometer: 29.96 inHg , 1014.6 hPa
Clouds: Clear
Visibility: 10 miles , 16 km
2019/01/21 03:53 KBFI 210353Z 00000KT 10SM CLR 03/01 A2996 RMK AO2 SLP146 T00280011
KSEA - Seattle/Metro, WA, USA
Distance from station: NE 5mi, 8km
Updated: Sun, 20-Jan-2019 7:53pm PST
Mostly cloudy
Mostly cloudy
 Wind from NNE
Wind: NNE 6 mph , 9 km/h
Temperature: 43°F , 6°C
Wind Chill: 39°F , 4°C
Dew Point: 36°F , 2°C
Humidity: 76%
Barometer: 29.95 inHg , 1014.2 hPa
Clouds: Mostly cloudy
Visibility: 10 miles , 16 km
Cloud details: Mostly cloudy 3300 ft
2019/01/21 03:53 KSEA 210353Z 02005KT 10SM BKN033 06/02 A2995 RMK AO2 SLP152 T00560017 $
 
KTIW - Tacoma, WA, USA
Distance from station: S 30mi, 45km
Updated: Sun, 20-Jan-2019 7:53pm PST
Partly cloudy
Partly cloudy
 Wind from calm
Wind: Calm
Temperature: 39°F , 4°C
Dew Point: 36°F , 2°C
Humidity: 87%
Barometer: 29.96 inHg , 1014.6 hPa
Clouds: Partly cloudy
Visibility: 10 miles , 16 km
Cloud details: Partly cloudy 3700 ft
2019/01/21 03:53 KTIW 210353Z 00000KT 10SM SCT037 04/02 A2996 RMK AO2 SLP146 T00390017
KCLM - Port Angeles, WA, USA
Distance from station: NW 70mi, 100km
Updated: Sun, 20-Jan-2019 7:53pm PST
Clear
Clear
 Wind from SW
Wind: SW 8 mph , 13 km/h
Temperature: 36°F , 2°C
Wind Chill: 30°F , -1°C
Dew Point: 34°F , 1°C
Humidity: 93%
Barometer: 29.96 inHg , 1014.6 hPa
Clouds: Clear
Visibility: 10 miles , 16 km
2019/01/21 03:53 KCLM 210353Z AUTO 23007KT 10SM CLR 02/01 A2996 RMK AO2 SLP149 T00220006 $